createdAt,value
2022-09-03T00:02:09.701Z,96896.03
2022-09-03T00:04:57.453Z,96906.16
2022-09-03T00:07:30.502Z,96903.72
2022-09-03T00:10:03.000Z,96895.66
2022-09-03T00:12:36.870Z,96896.59
2022-09-03T00:15:08.159Z,96894.78
2022-09-03T00:18:01.188Z,96898.59
2022-09-03T00:20:39.188Z,96892.59
2022-09-03T00:23:16.144Z,96895.75
2022-09-03T00:25:47.662Z,96899.53
2022-09-03T00:28:21.799Z,96904.84
2022-09-03T00:30:57.265Z,96894.00
2022-09-03T00:33:30.174Z,96893.28
2022-09-03T00:36:02.550Z,96899.16
2022-09-03T00:38:30.446Z,96898.94
2022-09-03T00:41:22.990Z,96890.00
2022-09-03T00:44:09.395Z,96882.94
2022-09-03T00:46:42.552Z,96892.75
2022-09-03T00:49:14.919Z,96889.88
2022-09-03T00:52:35.793Z,96893.16
2022-09-03T00:55:40.001Z,96894.50
2022-09-03T00:58:39.335Z,96896.72
2022-09-03T01:01:18.969Z,96897.50
2022-09-03T01:04:38.216Z,96897.50
2022-09-03T01:07:14.461Z,96902.44
2022-09-03T01:09:56.922Z,96899.94
2022-09-03T01:12:51.151Z,96909.41
2022-09-03T01:15:22.706Z,96903.50
2022-09-03T01:18:00.099Z,96896.56
2022-09-03T01:20:55.690Z,96894.44
2022-09-03T01:23:28.336Z,96903.28
2022-09-03T01:26:27.496Z,96898.25
2022-09-03T01:29:09.131Z,96908.13
2022-09-03T01:31:46.887Z,96912.22
2022-09-03T01:34:23.472Z,96915.78
2022-09-03T01:36:58.233Z,96920.53
2022-09-03T01:39:51.504Z,96916.44
2022-09-03T01:42:39.552Z,96928.63
2022-09-03T01:45:34.120Z,96922.56
2022-09-03T01:48:19.456Z,96929.78
2022-09-03T01:51:19.482Z,96918.97
2022-09-03T01:54:20.694Z,96918.63
2022-09-03T01:57:31.257Z,96923.78
2022-09-03T02:00:13.237Z,96934.94
2022-09-03T02:02:47.814Z,96928.28
2022-09-03T02:05:23.341Z,96931.88
2022-09-03T02:08:05.277Z,96936.16
2022-09-03T02:10:39.319Z,96927.75
2022-09-03T02:13:11.639Z,96936.59
2022-09-03T02:15:42.003Z,96925.72
2022-09-03T02:18:17.147Z,96924.78
2022-09-03T02:20:44.819Z,96924.78
2022-09-03T02:23:11.539Z,96924.38
2022-09-03T02:25:46.650Z,96916.19
2022-09-03T02:28:17.278Z,96910.72
2022-09-03T02:30:50.871Z,96910.00
2022-09-03T02:33:17.657Z,96903.38
2022-09-03T02:35:44.378Z,96906.31
2022-09-03T02:38:16.906Z,96913.69
2022-09-03T02:40:44.480Z,96905.16
2022-09-03T02:43:35.326Z,96912.44
2022-09-03T02:46:04.120Z,96912.84
2022-09-03T02:48:30.796Z,96921.00
2022-09-03T02:50:57.442Z,96925.25
2022-09-03T02:53:28.252Z,96926.88
2022-09-03T02:56:01.748Z,96922.28
2022-09-03T02:58:29.294Z,96922.06
2022-09-03T03:00:55.850Z,96926.09
2022-09-03T03:03:22.412Z,96917.34
2022-09-03T03:05:51.770Z,96921.16
2022-09-03T03:08:21.497Z,96904.66
2022-09-03T03:10:49.512Z,96904.25
2022-09-03T03:13:16.604Z,96901.84
2022-09-03T03:15:43.437Z,96901.56
2022-09-03T03:18:12.287Z,96913.06
2022-09-03T03:20:38.992Z,96921.13
2022-09-03T03:23:06.404Z,96925.53
2022-09-03T03:25:34.595Z,96922.41
2022-09-03T03:28:01.272Z,96925.28
2022-09-03T03:30:28.388Z,96928.63
2022-09-03T03:32:55.222Z,96916.66
2022-09-03T03:35:22.343Z,96920.09
2022-09-03T03:37:49.010Z,96916.97
2022-09-03T03:40:15.867Z,96919.59
2022-09-03T03:42:42.619Z,96916.00
2022-09-03T03:45:12.946Z,96916.13
2022-09-03T03:47:39.478Z,96923.03
2022-09-03T03:50:06.480Z,96916.19
2022-09-03T03:52:33.177Z,96910.75
2022-09-03T03:54:59.708Z,96916.59
2022-09-03T03:57:26.407Z,96904.91
2022-09-03T03:59:52.915Z,96905.13
2022-09-03T04:02:19.565Z,96904.91
2022-09-03T04:04:46.168Z,96904.78
2022-09-03T04:07:12.723Z,96913.09
2022-09-03T04:09:39.237Z,96919.44
2022-09-03T04:12:08.810Z,96920.78
2022-09-03T04:14:35.543Z,96919.63
2022-09-03T04:17:03.149Z,96927.63
2022-09-03T04:19:30.282Z,96920.91
2022-09-03T04:21:57.258Z,96919.72
2022-09-03T04:24:24.001Z,96927.91
2022-09-03T04:26:50.690Z,96927.38
2022-09-03T04:29:18.355Z,96924.19
2022-09-03T04:32:04.929Z,96925.97
2022-09-03T04:34:32.115Z,96928.16
2022-09-03T04:36:59.201Z,96928.69
2022-09-03T04:39:26.188Z,96931.06
2022-09-03T04:41:52.830Z,96926.88
2022-09-03T04:44:19.429Z,96930.06
2022-09-03T04:46:47.894Z,96939.06
2022-09-03T04:49:14.814Z,96937.56
2022-09-03T04:51:41.643Z,96935.38
2022-09-03T04:54:09.936Z,96933.28
2022-09-03T04:56:40.142Z,96925.13
2022-09-03T04:59:08.115Z,96927.63
2022-09-03T05:01:37.376Z,96916.03
2022-09-03T05:04:05.235Z,96917.31
2022-09-03T05:06:33.348Z,96925.13
2022-09-03T05:09:00.765Z,96918.69
2022-09-03T05:11:29.010Z,96925.81
2022-09-03T05:13:57.659Z,96925.19
2022-09-03T05:16:25.930Z,96931.38
2022-09-03T05:18:54.134Z,96939.91
2022-09-03T05:21:21.084Z,96938.94
2022-09-03T05:23:50.486Z,96933.69
2022-09-03T05:26:28.803Z,96935.38
2022-09-03T05:28:58.952Z,96935.34
2022-09-03T05:31:26.759Z,96938.56
2022-09-03T05:33:58.378Z,96944.50
2022-09-03T05:36:26.723Z,96934.19
2022-09-03T05:38:54.307Z,96932.84
2022-09-03T05:41:22.011Z,96944.41
2022-09-03T05:43:55.252Z,96949.06
2022-09-03T05:46:27.617Z,96940.81
2022-09-03T05:48:54.241Z,96943.16
2022-09-03T05:51:20.800Z,96936.19
2022-09-03T05:53:49.282Z,96929.19
2022-09-03T05:56:19.089Z,96924.16
2022-09-03T05:58:46.782Z,96923.31
2022-09-03T06:01:21.678Z,96918.00
2022-09-03T06:03:54.562Z,96920.06
2022-09-03T06:06:31.609Z,96915.47
2022-09-03T06:09:00.330Z,96912.41
2022-09-03T06:11:29.483Z,96914.66
2022-09-03T06:13:57.667Z,96910.16
2022-09-03T06:16:30.586Z,96899.63
2022-09-03T06:18:59.859Z,96899.41
2022-09-03T06:21:27.143Z,96899.19
2022-09-03T06:23:59.625Z,96903.75
2022-09-03T06:26:28.845Z,96906.47
2022-09-03T06:28:57.085Z,96904.78
2022-09-03T06:31:24.320Z,96912.22
2022-09-03T06:33:51.889Z,96908.13
2022-09-03T06:36:19.955Z,96910.59
2022-09-03T06:38:47.548Z,96911.00
2022-09-03T06:41:26.192Z,96905.06
2022-09-03T06:44:04.727Z,96900.09
2022-09-03T06:46:35.064Z,96909.56
2022-09-03T06:49:02.024Z,96919.81
2022-09-03T06:51:30.564Z,96922.41
2022-09-03T06:54:02.423Z,96923.69
2022-09-03T06:56:29.278Z,96923.22
2022-09-03T06:59:00.732Z,96928.09
2022-09-03T07:01:31.385Z,96932.34
2022-09-03T07:04:05.435Z,96932.03
2022-09-03T07:06:37.163Z,96935.91
2022-09-03T07:09:03.807Z,96931.91
2022-09-03T07:11:31.372Z,96939.16
2022-09-03T07:13:58.947Z,96931.94
2022-09-03T07:16:35.542Z,96945.16
2022-09-03T07:19:04.626Z,96939.22
2022-09-03T07:21:34.130Z,96937.97
2022-09-03T07:24:01.109Z,96930.78
2022-09-03T07:26:30.536Z,96945.66
2022-09-03T07:28:58.343Z,96959.69
2022-09-03T07:31:29.258Z,96962.84
2022-09-03T07:34:00.148Z,96964.19
2022-09-03T07:36:28.985Z,96965.38
2022-09-03T07:38:59.522Z,96971.09
2022-09-03T07:41:28.862Z,96972.69
2022-09-03T07:43:57.124Z,96979.78
2022-09-03T07:46:27.359Z,96986.00
2022-09-03T07:48:58.714Z,96980.72
2022-09-03T07:51:29.821Z,96976.81
2022-09-03T07:53:58.833Z,96974.25
2022-09-03T07:56:27.102Z,96971.56
2022-09-03T07:58:56.591Z,96959.50
2022-09-03T08:01:25.289Z,96971.31
2022-09-03T08:06:45.214Z,96978.38
2022-09-03T08:09:13.742Z,96972.69
2022-09-03T08:11:43.514Z,96967.75
2022-09-03T08:14:12.348Z,96956.22
2022-09-03T08:16:44.411Z,96967.41
2022-09-03T08:19:11.965Z,96965.47
2022-09-03T08:21:38.644Z,96970.97
2022-09-03T08:24:06.439Z,96969.72
2022-09-03T08:26:35.932Z,96967.47
2022-09-03T08:29:03.663Z,96976.69
2022-09-03T08:31:32.319Z,96984.91
2022-09-03T08:34:06.532Z,96979.50
2022-09-03T08:36:36.429Z,96990.69
2022-09-03T08:39:09.589Z,96985.00
2022-09-03T08:41:43.509Z,96982.59
2022-09-03T08:44:22.114Z,96976.25
2022-09-03T08:46:58.835Z,96974.53
2022-09-03T08:49:34.000Z,96971.63
2022-09-03T08:52:06.012Z,96970.13
2022-09-03T08:54:33.116Z,96969.19
2022-09-03T08:57:03.356Z,96969.91
2022-09-03T08:59:32.985Z,96971.38
2022-09-03T09:02:21.797Z,96968.63
2022-09-03T09:05:00.318Z,96965.75
2022-09-03T09:08:04.738Z,96969.84
2022-09-03T09:10:33.885Z,96960.66
2022-09-03T09:13:16.320Z,96959.44
2022-09-03T09:16:15.204Z,96960.41
2022-09-03T09:19:07.842Z,96955.47
2022-09-03T09:21:45.988Z,96958.59
2022-09-03T09:24:23.305Z,96955.59
2022-09-03T09:26:56.069Z,96958.03
2022-09-03T09:29:22.848Z,96956.16
2022-09-03T09:31:49.855Z,96956.06
2022-09-03T09:34:16.407Z,96949.97
2022-09-03T09:36:48.402Z,96947.53
2022-09-03T09:39:19.353Z,96954.75
2022-09-03T09:42:05.455Z,96948.50
2022-09-03T09:44:32.054Z,96946.78
2022-09-03T09:47:06.457Z,96954.81
2022-09-03T09:49:51.097Z,96941.19
2022-09-03T09:52:19.425Z,96932.34
2022-09-03T09:54:46.912Z,96937.81
2022-09-03T09:57:22.413Z,96942.41
2022-09-03T09:59:50.416Z,96941.88
2022-09-03T10:02:24.034Z,96937.09
2022-09-03T10:04:50.759Z,96938.06
2022-09-03T10:11:07.964Z,96928.53
2022-09-03T10:13:43.333Z,96924.22
2022-09-03T10:16:15.890Z,96926.53
2022-09-03T10:18:48.467Z,96928.72
2022-09-03T10:21:27.774Z,96932.63
2022-09-03T10:24:21.829Z,96927.16
2022-09-03T10:26:48.385Z,96927.47
2022-09-03T10:29:22.119Z,96929.59
2022-09-03T10:32:37.832Z,96925.88
2022-09-03T10:35:43.254Z,96934.97
2022-09-03T10:38:36.815Z,96931.78
2022-09-03T10:41:59.858Z,96923.63
2022-09-03T10:44:53.310Z,96929.34
2022-09-03T10:47:47.573Z,96939.44
2022-09-03T10:50:23.265Z,96933.75
2022-09-03T10:53:16.561Z,96927.41
2022-09-03T10:56:04.217Z,96926.81
2022-09-03T10:58:30.790Z,96925.78
2022-09-03T11:01:10.925Z,96927.56
2022-09-03T11:03:39.007Z,96930.53
2022-09-03T11:06:16.972Z,96922.75
2022-09-03T11:09:11.820Z,96912.44
2022-09-03T11:11:45.351Z,96924.44
2022-09-03T11:14:16.028Z,96919.03
2022-09-03T11:16:57.604Z,96923.63
2022-09-03T11:19:54.064Z,96920.56
2022-09-03T11:22:23.267Z,96924.25
2022-09-03T11:24:56.613Z,96913.66
2022-09-03T11:27:41.144Z,96919.41
2022-09-03T11:30:10.377Z,96911.03
2022-09-03T11:32:56.079Z,96910.13
2022-09-03T11:35:28.134Z,96908.22
2022-09-03T11:38:05.575Z,96905.66
2022-09-03T11:40:34.901Z,96909.56
2022-09-03T11:43:28.978Z,96913.66
2022-09-03T11:46:06.580Z,96909.63
2022-09-03T11:48:45.463Z,96910.69
2022-09-03T11:51:33.316Z,96909.66
2022-09-03T11:54:01.896Z,96921.41
2022-09-03T11:56:31.009Z,96916.16
2022-09-03T11:59:19.281Z,96909.75
2022-09-03T12:02:01.606Z,96918.34
2022-09-03T12:05:05.995Z,96911.81
2022-09-03T12:07:41.632Z,96900.81
2022-09-03T12:10:21.752Z,96904.34
2022-09-03T12:13:06.597Z,96904.16
2022-09-03T12:15:51.688Z,96899.00
2022-09-03T12:18:26.059Z,96898.53
2022-09-03T12:20:52.783Z,96902.88
2022-09-03T12:23:28.341Z,96894.38
2022-09-03T12:25:55.010Z,96883.09
2022-09-03T12:28:23.532Z,96880.31
2022-09-03T12:30:53.274Z,96879.94
2022-09-03T12:33:23.227Z,96876.97
2022-09-03T12:35:58.716Z,96868.88
2022-09-03T12:38:26.777Z,96875.75
2022-09-03T12:43:42.529Z,96864.41
2022-09-03T12:46:14.840Z,96870.53
2022-09-03T12:48:47.364Z,96865.38
2022-09-03T12:54:01.370Z,96859.38
2022-09-03T12:56:29.013Z,96868.56
2022-09-03T12:58:59.366Z,96857.06
2022-09-03T13:01:31.805Z,96864.41
2022-09-03T13:04:15.244Z,96868.97
2022-09-03T13:06:49.928Z,96868.09
2022-09-03T13:09:20.387Z,96861.69
2022-09-03T13:11:46.789Z,96854.06
2022-09-03T13:14:14.149Z,96859.25
2022-09-03T13:16:46.764Z,96864.13
2022-09-03T13:19:22.247Z,96864.50
2022-09-03T13:21:48.758Z,96857.19
2022-09-03T13:24:37.777Z,96856.78
2022-09-03T13:27:22.972Z,96852.25
2022-09-03T13:30:11.964Z,96842.78
2022-09-03T13:32:40.648Z,96834.38
2022-09-03T13:35:19.385Z,96824.94
2022-09-03T13:37:54.724Z,96828.97
2022-09-03T13:40:45.448Z,96824.94
2022-09-03T13:43:20.805Z,96821.06
2022-09-03T13:46:20.909Z,96812.41
2022-09-03T13:49:08.079Z,96819.47
2022-09-03T13:51:40.464Z,96826.41
2022-09-03T13:54:48.045Z,96825.84
2022-09-03T13:57:24.441Z,96821.81
2022-09-03T14:00:10.153Z,96827.91
2022-09-03T14:02:45.928Z,96820.75
2022-09-03T14:05:41.361Z,96826.97
2022-09-03T14:08:32.716Z,96826.63
2022-09-03T14:11:36.835Z,96832.38
2022-09-03T14:14:12.616Z,96828.00
2022-09-03T14:16:55.368Z,96830.09
2022-09-03T14:19:37.213Z,96830.72
2022-09-03T14:22:25.840Z,96828.22
2022-09-03T14:24:56.251Z,96831.97
2022-09-03T14:27:31.597Z,96830.69
2022-09-03T14:30:05.040Z,96826.31
2022-09-03T14:33:13.388Z,96839.59
2022-09-03T14:36:25.906Z,96840.84
2022-09-03T14:39:39.552Z,96837.66
2022-09-03T14:42:44.675Z,96831.25
2022-09-03T14:45:13.956Z,96829.69
2022-09-03T14:48:21.627Z,96830.59
2022-09-03T14:51:25.711Z,96827.31
2022-09-03T14:54:29.985Z,96835.91
2022-09-03T14:57:22.523Z,96837.47
2022-09-03T15:00:20.136Z,96834.81
2022-09-03T15:03:16.287Z,96829.66
2022-09-03T15:06:12.164Z,96834.44
2022-09-03T15:09:03.364Z,96836.28
2022-09-03T15:11:34.318Z,96849.34
2022-09-03T15:14:10.470Z,96840.97
2022-09-03T15:16:59.837Z,96838.91
2022-09-03T15:19:47.796Z,96840.53
2022-09-03T15:22:29.769Z,96844.72
2022-09-03T15:25:08.551Z,96849.72
2022-09-03T15:27:56.781Z,96855.97
2022-09-03T15:30:23.686Z,96851.06
2022-09-03T15:32:55.861Z,96856.16
2022-09-03T15:35:33.671Z,96853.63
2022-09-03T15:38:09.113Z,96862.25
2022-09-03T15:40:48.957Z,96868.66
2022-09-03T15:43:21.870Z,96866.13
2022-09-03T15:45:59.962Z,96870.28
2022-09-03T15:48:29.421Z,96865.28
2022-09-03T15:51:22.457Z,96856.47
2022-09-03T15:54:07.542Z,96875.38
2022-09-03T15:56:53.266Z,96865.44
2022-09-03T15:59:25.572Z,96872.88
2022-09-03T16:02:11.027Z,96868.84
2022-09-03T16:04:50.536Z,96886.22
2022-09-03T16:07:29.148Z,96888.69
2022-09-03T16:10:26.343Z,96890.72
2022-09-03T16:13:05.893Z,96897.47
2022-09-03T16:15:47.005Z,96897.75
2022-09-03T16:19:07.951Z,96909.03
2022-09-03T16:21:42.877Z,96912.03
2022-09-03T16:24:30.306Z,96909.63
2022-09-03T16:27:04.646Z,96910.09
2022-09-03T16:29:31.744Z,96915.66
2022-09-03T16:32:36.050Z,96918.34
2022-09-03T16:35:21.711Z,96937.25
2022-09-03T16:38:21.969Z,96942.84
2022-09-03T16:40:53.553Z,96946.66
2022-09-03T16:43:43.262Z,96957.88
2022-09-03T16:46:09.911Z,96973.50
2022-09-03T16:49:10.225Z,96989.94
2022-09-03T16:52:05.705Z,96995.53
2022-09-03T16:54:55.936Z,97010.88
2022-09-03T16:57:38.621Z,97009.16
2022-09-03T17:00:10.521Z,97026.97
2022-09-03T17:03:25.130Z,97036.78
2022-09-03T17:06:07.156Z,97037.13
2022-09-03T17:09:01.281Z,97036.00
2022-09-03T17:11:42.489Z,97033.53
2022-09-03T17:14:18.030Z,97034.16
2022-09-03T17:17:08.576Z,97031.63
2022-09-03T17:32:12.074Z,97031.06
2022-09-03T18:03:18.479Z,96983.28
2022-09-03T18:06:26.665Z,97000.22
2022-09-03T18:09:01.642Z,97000.78
2022-09-03T18:11:37.344Z,97001.06
2022-09-03T18:14:34.756Z,96993.41
2022-09-03T18:28:29.066Z,96978.84
2022-09-03T18:39:11.249Z,96986.28
2022-09-03T18:49:34.347Z,97011.50
2022-09-03T18:56:15.786Z,97046.63
2022-09-03T19:03:00.201Z,97068.31
2022-09-03T19:10:19.501Z,97090.31
2022-09-03T19:17:09.724Z,97103.34
2022-09-03T19:24:18.246Z,97117.09
2022-09-03T19:38:15.272Z,97148.41
2022-09-03T19:48:24.665Z,97152.44
2022-09-03T19:59:40.252Z,97135.31
2022-09-03T20:06:28.103Z,97146.66
2022-09-03T20:28:29.694Z,97154.91
2022-09-03T20:49:08.519Z,97153.22
2022-09-03T21:06:42.624Z,97159.19
2022-09-03T21:09:19.193Z,97159.91
2022-09-03T21:15:49.004Z,97158.13
2022-09-03T21:22:23.581Z,97161.38
2022-09-03T21:24:58.839Z,97157.66
2022-09-03T21:27:39.600Z,97164.28
2022-09-03T21:30:09.591Z,97166.66
2022-09-03T21:32:44.359Z,97168.84
2022-09-03T21:35:27.547Z,97159.72
2022-09-03T21:38:07.021Z,97161.63
2022-09-03T21:41:11.352Z,97161.63
2022-09-03T21:43:58.203Z,97171.13
2022-09-03T21:46:31.175Z,97166.06
2022-09-03T21:49:49.544Z,97166.06
2022-09-03T21:52:24.691Z,97170.88
2022-09-03T21:54:52.191Z,97177.25
2022-09-03T21:57:46.233Z,97181.47
2022-09-03T22:03:29.724Z,97171.94
2022-09-03T22:06:10.654Z,97178.63
2022-09-03T22:09:11.289Z,97172.69
2022-09-03T22:12:13.392Z,97171.56
2022-09-03T22:14:48.156Z,97162.94
2022-09-03T22:17:20.519Z,97172.19
2022-09-03T22:23:04.520Z,97180.56
2022-09-03T22:26:13.222Z,97180.75
2022-09-03T22:29:22.281Z,97174.03
2022-09-03T22:32:32.690Z,97171.91
2022-09-03T22:35:46.792Z,97178.56
2022-09-03T22:38:48.772Z,97172.09
2022-09-03T22:41:39.137Z,97158.41
2022-09-03T22:44:27.029Z,97167.88
2022-09-03T22:47:25.937Z,97164.16
2022-09-03T22:49:59.389Z,97164.78
2022-09-03T22:52:48.361Z,97158.66
2022-09-03T22:55:23.076Z,97163.44
2022-09-03T22:57:55.469Z,97167.13
2022-09-03T23:00:39.421Z,97165.91
2022-09-03T23:03:55.616Z,97170.94
2022-09-03T23:06:53.356Z,97170.06
2022-09-03T23:09:25.187Z,97178.50
2022-09-03T23:11:58.118Z,97176.72
2022-09-03T23:14:32.529Z,97171.75
2022-09-03T23:20:23.229Z,97174.25
2022-09-03T23:32:31.273Z,97181.28
2022-09-03T23:35:02.236Z,97178.66
2022-09-03T23:57:18.103Z,97187.00
2022-09-03T23:59:53.357Z,97179.38
